Time;durP1;ratioP1;P1;durP2;ratioP2;P2;SDS_P1;SDS_P2;PMS_P1;PMS_P2;Temp;Humidity;BMP_temperature;BMP_pressure;BME280_temperature;BME280_humidity;BME280_pressure;Samples;Min_cycle;Max_cycle;Signal;HPM_P1;HPM_P2
2021/12/12 00:00:47;;;;;;;55.87;32.33;;;;;;;11.58;73.46;101326.81;4933714;29;20047;-66
2021/12/12 00:03:32;;;;;;;56.65;31.60;;;;;;;11.52;73.64;101323.16;4928236;29;20039;-66
2021/12/12 00:06:03;;;;;;;58.77;31.20;;;;;;;11.56;73.67;101331.84;4924795;29;20147;-66
2021/12/12 00:08:30;;;;;;;56.33;32.57;;;;;;;11.56;73.50;101324.31;4926375;29;20530;-66
2021/12/12 00:11:02;;;;;;;60.37;34.40;;;;;;;11.58;73.54;101327.66;4928901;29;20445;-66
2021/12/12 00:13:37;;;;;;;64.73;32.60;;;;;;;11.60;73.51;101333.00;4929708;29;20547;-64
2021/12/12 00:16:05;;;;;;;56.03;33.83;;;;;;;11.52;73.23;101328.75;4929868;29;20090;-64
2021/12/12 00:18:32;;;;;;;63.27;36.53;;;;;;;11.43;73.13;101335.94;4936381;29;20448;-67
2021/12/12 00:20:59;;;;;;;53.40;31.60;;;;;;;11.44;73.11;101337.63;4926958;29;20482;-73
2021/12/12 00:23:26;;;;;;;73.10;42.53;;;;;;;11.45;73.27;101332.84;4931036;29;20126;-69
2021/12/12 00:25:56;;;;;;;76.43;44.23;;;;;;;11.44;73.34;101340.41;4939155;29;20456;-69
2021/12/12 00:28:23;;;;;;;63.22;37.13;;;;;;;11.36;73.39;101327.78;4918671;29;20475;-73
2021/12/12 00:30:53;;;;;;;60.40;35.07;;;;;;;11.39;73.26;101332.00;4935957;29;20123;-72
2021/12/12 00:33:21;;;;;;;64.03;36.83;;;;;;;11.36;73.31;101338.13;4934490;29;20119;-69
2021/12/12 00:35:49;;;;;;;57.87;33.07;;;;;;;11.37;73.12;101334.22;4935296;29;20072;-71
2021/12/12 00:38:26;;;;;;;55.30;33.53;;;;;;;11.28;72.80;101319.03;4937854;29;20124;-70
2021/12/12 00:40:57;;;;;;;51.53;31.30;;;;;;;11.28;72.69;101330.19;4949762;29;20142;-66
2021/12/12 00:43:39;;;;;;;56.37;32.13;;;;;;;11.17;72.61;101306.06;4934402;29;20059;-69
2021/12/12 00:46:09;;;;;;;53.47;32.43;;;;;;;11.24;72.49;101326.25;4937098;29;20086;-79
2021/12/12 00:48:39;;;;;;;53.95;32.25;;;;;;;11.14;72.70;101325.06;4928899;29;20496;-74
2021/12/12 00:51:09;;;;;;;58.17;34.45;;;;;;;11.10;72.74;101323.91;4928987;29;20131;-75
2021/12/12 00:53:41;;;;;;;50.45;31.92;;;;;;;11.06;72.78;101319.97;4930330;29;20048;-75
2021/12/12 00:56:10;;;;;;;55.57;30.77;;;;;;;11.04;72.67;101312.94;4928469;29;20047;-76
2021/12/12 00:58:37;;;;;;;52.60;30.67;;;;;;;10.99;72.78;101316.53;4935427;29;20464;-77
2021/12/12 01:01:28;;;;;;;52.67;31.20;;;;;;;11.01;73.17;101305.06;4934978;29;20126;-69
2021/12/12 01:04:05;;;;;;;55.87;32.23;;;;;;;10.97;73.27;101299.19;4934731;29;20052;-72
2021/12/12 01:06:32;;;;;;;54.40;33.50;;;;;;;11.10;73.23;101312.72;4932728;29;20082;-70
2021/12/12 01:09:04;;;;;;;53.87;33.37;;;;;;;11.02;73.29;101302.03;4932737;29;20075;-71
2021/12/12 01:11:35;;;;;;;54.73;31.20;;;;;;;11.13;72.87;101298.22;4935724;29;20142;-71
2021/12/12 01:14:06;;;;;;;58.90;33.70;;;;;;;11.14;72.89;101296.25;4934440;29;20460;-68
2021/12/12 01:16:37;;;;;;;67.20;36.55;;;;;;;11.11;72.81;101294.84;4932896;29;20126;-68
2021/12/12 01:19:12;;;;;;;54.13;35.00;;;;;;;10.93;72.54;101258.06;4927326;29;20531;-69
2021/12/12 01:21:45;;;;;;;50.97;31.03;;;;;;;11.09;72.78;101288.69;4946478;29;20127;-70
2021/12/12 01:24:21;;;;;;;64.30;35.70;;;;;;;11.05;72.66;101287.53;4927405;29;20131;-70
2021/12/12 01:26:48;;;;;;;57.73;32.83;;;;;;;11.04;72.86;101299.81;4934738;29;20131;-70
2021/12/12 01:29:15;;;;;;;64.33;36.13;;;;;;;10.95;72.54;101293.03;4940859;29;23294;-69
2021/12/12 01:31:47;;;;;;;54.33;33.17;;;;;;;11.00;72.86;101304.25;4929564;29;20055;-70
2021/12/12 01:34:22;;;;;;;56.43;33.23;;;;;;;10.91;72.99;101284.34;4929105;29;20071;-70
2021/12/12 01:39:34;;;;;;;62.07;33.87;;;;;;;11.00;73.10;101287.47;4927989;29;20690;-71
2021/12/12 01:42:11;;;;;;;54.80;32.70;;;;;;;11.02;72.94;101290.84;4933131;29;20098;-70
2021/12/12 01:44:45;;;;;;;65.17;35.13;;;;;;;10.99;72.61;101288.59;4929488;29;20086;-69
2021/12/12 01:47:15;;;;;;;56.27;33.10;;;;;;;10.95;72.73;101284.66;4934378;29;20052;-75
2021/12/12 01:49:46;;;;;;;51.65;28.45;;;;;;;10.91;72.84;101289.09;4926516;29;20062;-64
2021/12/12 01:52:18;;;;;;;46.63;26.83;;;;;;;10.93;73.17;101286.84;4930477;29;20167;-63
2021/12/12 01:54:49;;;;;;;62.80;31.37;;;;;;;10.98;73.04;101278.53;4932623;29;20134;-64
2021/12/12 01:57:27;;;;;;;40.43;24.37;;;;;;;11.00;73.02;101270.69;4932187;29;20044;-64
2021/12/12 01:59:57;;;;;;;40.77;24.67;;;;;;;10.91;73.02;101250.78;4930866;29;20059;-64
2021/12/12 02:02:28;;;;;;;53.20;28.98;;;;;;;11.03;72.94;101264.59;4935402;29;20126;-66
2021/12/12 02:04:59;;;;;;;54.73;31.17;;;;;;;11.03;72.85;101270.16;4929399;29;20079;-65
2021/12/12 02:07:29;;;;;;;67.00;38.00;;;;;;;10.97;72.63;101274.03;4931491;29;20577;-66
2021/12/12 02:10:00;;;;;;;60.67;35.90;;;;;;;10.91;72.66;101272.31;4933339;29;20493;-64
2021/12/12 02:12:27;;;;;;;67.63;39.47;;;;;;;10.81;72.55;101266.63;4932632;29;20435;-67
2021/12/12 02:14:57;;;;;;;54.13;34.23;;;;;;;10.85;72.64;101273.38;4931364;29;20510;-67
2021/12/12 02:17:34;;;;;;;54.72;32.42;;;;;;;10.73;72.71;101264.28;4931536;29;20075;-66
2021/12/12 02:20:20;;;;;;;41.13;25.27;;;;;;;10.65;72.75;101272.06;4928430;29;20054;-62
2021/12/12 02:36:31;;;;;;;55.37;25.50;;;;;;;10.38;72.31;101260.03;4931475;29;20126;-66
2021/12/12 02:38:59;;;;;;;38.17;20.93;;;;;;;10.31;72.28;101256.59;4933502;29;20143;-66
2021/12/12 02:41:27;;;;;;;41.37;23.33;;;;;;;10.37;72.15;101263.94;4930669;29;20060;-65
2021/12/12 02:43:59;;;;;;;31.17;21.43;;;;;;;10.11;72.18;101230.09;4930788;29;20048;-65
2021/12/12 02:46:35;;;;;;;35.77;21.67;;;;;;;10.10;72.50;101225.63;4925193;29;20572;-66
2021/12/12 02:49:09;;;;;;;34.63;18.80;;;;;;;10.35;72.41;101258.59;4932351;29;20047;-65
2021/12/12 02:51:39;;;;;;;33.70;20.80;;;;;;;10.31;72.50;101246.28;4929152;29;20135;-65
2021/12/12 02:54:08;;;;;;;32.05;19.85;;;;;;;10.43;72.55;101254.50;4934550;29;20114;-65
2021/12/12 02:56:39;;;;;;;33.77;19.43;;;;;;;10.46;72.64;101259.56;4931177;29;20143;-65
2021/12/12 02:59:10;;;;;;;30.47;19.87;;;;;;;10.48;72.46;101248.97;4930982;29;20131;-65
2021/12/12 03:01:44;;;;;;;34.73;21.23;;;;;;;10.42;72.11;101236.06;4930202;29;20126;-65
2021/12/12 03:04:12;;;;;;;34.30;20.97;;;;;;;10.45;72.39;101241.13;4930698;29;20139;-66
2021/12/12 03:06:41;;;;;;;34.80;20.70;;;;;;;10.38;72.19;101229.31;4930562;29;20075;-65
2021/12/12 03:09:28;;;;;;;30.73;20.33;;;;;;;10.42;72.12;101236.06;4931449;29;20503;-72
2021/12/12 03:12:03;;;;;;;32.97;18.60;;;;;;;10.44;72.24;101237.50;4930376;29;20122;-72
2021/12/12 03:14:32;;;;;;;32.90;18.40;;;;;;;10.42;72.21;101233.25;4932894;29;20047;-72
2021/12/12 03:17:09;;;;;;;38.17;21.60;;;;;;;10.41;72.43;101228.78;4931590;29;20470;-74
2021/12/12 03:19:37;;;;;;;32.03;20.13;;;;;;;10.42;73.16;101216.50;4928685;29;20135;-74
2021/12/12 03:22:09;;;;;;;35.20;21.37;;;;;;;10.58;73.44;101223.09;4930978;29;20143;-72
2021/12/12 03:24:37;;;;;;;31.57;18.07;;;;;;;10.57;73.19;101224.22;4931147;29;20166;-73
2021/12/12 03:27:06;;;;;;;32.83;18.50;;;;;;;10.51;73.42;101209.34;4932118;29;20139;-66
2021/12/12 03:29:34;;;;;;;33.05;19.63;;;;;;;10.56;73.12;101202.97;4932520;29;20455;-76
2021/12/12 03:32:07;;;;;;;18.50;11.33;;;;;;;10.63;72.78;101203.59;4933065;29;20139;-67
2021/12/12 03:34:37;;;;;;;29.10;18.73;;;;;;;10.51;72.84;101189.81;4928348;29;20499;-70
2021/12/12 03:37:05;;;;;;;;;;;;;;;10.59;73.57;101208.84;4930726;29;20134;-69
2021/12/12 03:39:36;;;;;;;19.00;10.37;;;;;;;10.57;74.33;101201.88;4926117;29;20013;-68
2021/12/12 03:42:07;;;;;;;21.00;11.17;;;;;;;10.67;75.00;101207.56;4931738;29;20189;-68
2021/12/12 03:44:38;;;;;;;27.77;19.13;;;;;;;10.78;74.79;101212.13;4934095;29;20134;-65
2021/12/12 03:47:18;;;;;;;31.30;18.03;;;;;;;10.76;74.35;101210.69;4931038;29;20143;-68
2021/12/12 03:49:45;;;;;;;32.88;20.80;;;;;;;10.82;74.10;101204.88;4932098;29;20139;-70
2021/12/12 03:52:18;;;;;;;37.73;19.83;;;;;;;10.79;73.53;101199.00;4925151;29;20488;-65
2021/12/12 03:54:47;;;;;;;32.17;20.20;;;;;;;10.24;72.74;101127.53;4931095;29;20139;-66
2021/12/12 03:57:18;;;;;;;33.97;18.63;;;;;;;10.50;72.72;101179.75;4931541;29;20131;-66
2021/12/12 03:59:45;;;;;;;34.17;18.83;;;;;;;10.48;72.54;101179.16;4936012;29;20058;-67
2021/12/12 04:02:12;;;;;;;29.30;17.20;;;;;;;10.50;72.41;101199.28;4937287;29;20151;-67
2021/12/12 04:04:42;;;;;;;21.63;10.53;;;;;;;10.41;72.58;101200.88;4932783;29;20059;-67
2021/12/12 04:07:14;;;;;;;37.57;18.50;;;;;;;10.38;72.69;101202.22;4930661;29;20481;-67
2021/12/12 04:09:41;;;;;;;31.60;19.73;;;;;;;10.34;72.88;101194.66;4930750;29;20139;-68
2021/12/12 04:12:11;;;;;;;28.13;17.73;;;;;;;10.25;72.60;101185.88;4932802;29;20143;-68
2021/12/12 04:14:38;;;;;;;33.95;18.05;;;;;;;10.27;72.46;101199.63;4935182;29;20131;-67
2021/12/12 04:17:12;;;;;;;25.83;16.37;;;;;;;10.18;72.42;101200.03;4933439;29;20584;-68
2021/12/12 04:19:42;;;;;;;28.80;17.00;;;;;;;10.17;72.50;101203.94;4931696;29;20051;-69
2021/12/12 04:22:10;;;;;;;23.52;13.32;;;;;;;9.97;72.58;101178.59;4933606;29;23351;-70
2021/12/12 04:24:40;;;;;;;23.07;10.47;;;;;;;10.14;73.39;101207.25;4933314;29;20043;-70
2021/12/12 04:27:08;;;;;;;26.33;15.27;;;;;;;10.23;73.33;101199.25;4935838;29;20126;-77
2021/12/12 04:29:39;;;;;;;26.90;14.30;;;;;;;10.30;73.91;101210.25;4936816;29;20091;-78
2021/12/12 04:32:10;;;;;;;24.15;12.45;;;;;;;10.35;73.87;101202.75;4934657;29;20392;-78
2021/12/12 04:34:43;;;;;;;27.37;16.43;;;;;;;10.42;74.19;101203.38;4924701;29;20130;-75
2021/12/12 04:37:10;;;;;;;17.37;11.13;;;;;;;10.37;74.19;101200.56;4933452;29;20135;-72
2021/12/12 04:39:41;;;;;;;16.80;9.00;;;;;;;10.44;74.46;101205.94;4927514;29;20079;-72
2021/12/12 04:42:14;;;;;;;39.33;21.80;;;;;;;10.46;74.09;101206.53;4926701;29;20148;-74
2021/12/12 04:44:42;;;;;;;21.03;11.57;;;;;;;10.39;73.93;101186.31;4935724;29;20054;-75
2021/12/12 04:50:15;;;;;;;;;;;;;;;10.49;73.89;101192.00;4922535;29;20078;-76
2021/12/12 04:53:01;;;;;;;39.80;24.67;;;;;;;10.49;73.73;101192.00;4930890;29;19966;-76
2021/12/12 04:55:51;;;;;;;39.27;25.07;;;;;;;10.44;73.28;101198.41;4932243;29;20083;-77
2021/12/12 04:58:21;;;;;;;;;;;;;;;10.37;73.36;101199.72;4933086;29;20079;-74
2021/12/12 05:00:52;;;;;;;34.47;22.27;;;;;;;10.30;72.88;101201.88;4933319;29;20006;-76
2021/12/12 05:03:42;;;;;;;31.17;21.10;;;;;;;10.20;72.90;101192.25;4935877;29;20044;-76
2021/12/12 05:06:13;;;;;;;37.78;23.77;;;;;;;10.18;72.94;101201.97;4928267;29;20077;-77
2021/12/12 05:08:48;;;;;;;33.83;22.77;;;;;;;10.13;72.93;101204.72;4935021;29;20487;-75
2021/12/12 05:11:23;;;;;;;33.53;23.13;;;;;;;10.06;72.29;101199.34;4936410;29;20147;-77
2021/12/12 05:13:55;;;;;;;15.10;9.17;;;;;;;10.00;72.64;101183.66;4933674;29;20047;-77
2021/12/12 05:16:44;;;;;;;11.43;7.37;;;;;;;10.03;74.20;101191.50;4934782;29;20528;-77
2021/12/12 05:19:16;;;;;;;14.63;7.97;;;;;;;10.08;75.12;101194.34;4935526;29;20075;-78
2021/12/12 05:21:49;;;;;;;11.17;6.53;;;;;;;10.16;75.52;101185.50;4933497;29;20071;-65
2021/12/12 05:24:19;;;;;;;13.13;6.53;;;;;;;10.15;75.90;101172.66;4930408;29;20075;-69
2021/12/12 05:26:51;;;;;;;13.00;7.65;;;;;;;10.23;76.08;101174.16;4935912;29;20464;-69
2021/12/12 05:29:29;;;;;;;11.50;6.87;;;;;;;10.28;75.88;101173.38;4933069;29;20083;-70
2021/12/12 05:32:00;;;;;;;11.70;6.27;;;;;;;10.31;76.00;101178.44;4932977;29;20052;-66
2021/12/12 05:34:31;;;;;;;9.90;6.70;;;;;;;10.44;75.73;101175.22;4928156;29;20182;-69
2021/12/12 05:37:01;;;;;;;20.97;12.33;;;;;;;10.54;75.49;101186.47;4931202;29;20139;-71
2021/12/12 05:39:30;;;;;;;22.77;11.88;;;;;;;10.55;75.09;101178.94;4933345;29;20147;-70
2021/12/12 05:41:58;;;;;;;37.70;21.80;;;;;;;10.63;74.27;101187.69;4930208;29;20151;-71
2021/12/12 05:44:27;;;;;;;25.07;14.70;;;;;;;10.66;73.66;101187.13;4929819;29;20048;-73
2021/12/12 05:46:59;;;;;;;21.10;13.97;;;;;;;10.57;73.65;101194.34;4929517;29;20154;-72
2021/12/12 05:49:27;;;;;;;10.20;6.63;;;;;;;10.38;74.02;101167.88;4934669;29;20377;-73
2021/12/12 05:51:55;;;;;;;14.63;7.10;;;;;;;10.41;74.78;101184.13;4932750;29;20054;-68
2021/12/12 05:54:25;;;;;;;13.47;6.53;;;;;;;10.39;75.20;101189.13;4933170;29;20086;-76
2021/12/12 05:56:53;;;;;;;10.80;6.47;;;;;;;10.32;75.27;101191.28;4935472;29;20464;-78
2021/12/12 05:59:21;;;;;;;12.60;6.27;;;;;;;10.28;75.79;101193.75;4935149;29;20134;-73
2021/12/12 06:01:49;;;;;;;12.70;6.60;;;;;;;10.14;75.75;101170.97;4935223;29;20465;-73
2021/12/12 06:04:19;;;;;;;15.97;9.77;;;;;;;10.36;75.38;101192.47;4932245;29;20039;-72
2021/12/12 06:06:47;;;;;;;17.75;7.63;;;;;;;10.41;75.25;101195.28;4933138;29;20079;-73
2021/12/12 06:09:16;;;;;;;13.10;6.93;;;;;;;10.43;74.96;101199.50;4928257;29;20067;-72
2021/12/12 06:11:46;;;;;;;14.40;7.17;;;;;;;10.47;74.55;101196.19;4931070;29;20491;-71
2021/12/12 06:14:14;;;;;;;17.70;10.83;;;;;;;10.55;74.00;101202.13;4933020;29;20044;-71
2021/12/12 06:16:43;;;;;;;15.07;7.00;;;;;;;10.51;73.69;101194.56;4933671;29;20048;-69
2021/12/12 06:19:19;;;;;;;15.47;9.70;;;;;;;10.56;73.59;101214.13;4939523;29;20053;-71
2021/12/12 06:21:51;;;;;;;19.33;11.37;;;;;;;10.55;73.13;101223.63;4932208;29;20076;-77
2021/12/12 06:24:19;;;;;;;20.47;10.97;;;;;;;10.46;72.75;101217.69;4934896;29;20043;-77
2021/12/12 06:26:47;;;;;;;17.60;10.00;;;;;;;10.39;72.23;101214.25;4937347;29;20126;-77
2021/12/12 06:29:14;;;;;;;16.10;9.90;;;;;;;10.34;72.35;101219.78;4935609;29;20143;-77
2021/12/12 06:31:46;;;;;;;16.10;9.23;;;;;;;10.20;72.33;101217.38;4933027;29;20257;-78
2021/12/12 06:34:15;;;;;;;14.83;10.10;;;;;;;10.23;72.46;101226.34;4934446;29;20097;-77
2021/12/12 06:36:43;;;;;;;18.43;9.60;;;;;;;10.18;72.39;101230.72;4930164;29;20138;-68
2021/12/12 06:39:11;;;;;;;21.10;10.07;;;;;;;10.21;72.25;101229.38;4931734;29;20131;-69
2021/12/12 06:41:38;;;;;;;17.00;8.80;;;;;;;10.15;72.46;101236.88;4932437;29;20131;-68
2021/12/12 06:44:08;;;;;;;19.50;11.07;;;;;;;10.14;72.58;101240.75;4932527;29;20130;-72
2021/12/12 06:46:38;;;;;;;21.13;9.80;;;;;;;10.04;72.49;101228.63;4930619;29;20139;-69
2021/12/12 06:49:07;;;;;;;14.45;8.13;;;;;;;10.08;72.77;101236.19;4932592;29;20062;-69
2021/12/12 06:51:37;;;;;;;19.07;8.13;;;;;;;10.08;73.00;101246.50;4932577;29;20131;-67
2021/12/12 06:54:05;;;;;;;15.75;8.90;;;;;;;9.98;73.45;101236.06;4930503;29;20139;-68
2021/12/12 06:56:33;;;;;;;14.70;9.07;;;;;;;10.10;73.21;101244.31;4932088;29;20134;-74
2021/12/12 06:59:02;;;;;;;15.80;8.70;;;;;;;10.07;73.30;101240.09;4932208;29;20139;-69
2021/12/12 07:01:32;;;;;;;18.27;9.77;;;;;;;10.13;73.19;101244.66;4931932;29;20059;-72
2021/12/12 07:04:00;;;;;;;16.42;9.70;;;;;;;10.14;72.79;101251.06;4928253;29;20702;-66
2021/12/12 07:06:29;;;;;;;18.07;10.13;;;;;;;10.14;72.80;101246.31;4928028;29;20044;-75
2021/12/12 07:09:00;;;;;;;14.53;8.20;;;;;;;10.08;72.58;101252.94;4929302;29;20047;-61
2021/12/12 07:11:28;;;;;;;16.93;9.40;;;;;;;9.97;72.60;101234.38;4928110;29;20154;-61
2021/12/12 07:13:56;;;;;;;13.27;8.73;;;;;;;10.10;72.48;101261.91;4920875;29;20048;-61
2021/12/12 07:16:23;;;;;;;15.23;8.13;;;;;;;10.10;72.52;101261.06;4928200;29;20047;-62
2021/12/12 07:18:54;;;;;;;15.40;8.10;;;;;;;10.09;72.62;101264.97;4923815;29;20039;-62
2021/12/12 07:21:22;;;;;;;12.75;7.78;;;;;;;10.09;73.22;101265.81;4927062;28;20051;-63
2021/12/12 07:23:50;;;;;;;13.77;7.97;;;;;;;10.02;73.41;101247.59;4921769;29;20135;-61
2021/12/12 07:26:21;;;;;;;14.77;7.43;;;;;;;10.08;73.61;101252.09;4931378;29;20075;-62
2021/12/12 07:28:52;;;;;;;12.13;7.67;;;;;;;10.12;73.94;101247.69;4927460;29;20468;-59
2021/12/12 07:31:24;;;;;;;10.80;7.13;;;;;;;10.15;73.87;101248.03;4920566;29;20135;-61
2021/12/12 07:33:53;;;;;;;15.40;8.97;;;;;;;10.17;73.76;101243.00;4930015;29;20048;-69
2021/12/12 07:36:22;;;;;;;13.02;7.63;;;;;;;10.24;73.99;101244.75;4933654;29;20135;-67
2021/12/12 07:38:57;;;;;;;15.10;8.60;;;;;;;10.20;74.11;101228.53;4932970;29;20094;-63
2021/12/12 07:41:28;;;;;;;11.13;6.07;;;;;;;10.12;74.49;101231.81;4933712;29;20043;-63
2021/12/12 07:43:57;;;;;;;10.87;6.20;;;;;;;10.05;75.00;101224.72;4936725;29;20139;-64
2021/12/12 07:46:26;;;;;;;7.77;5.43;;;;;;;10.02;75.17;101220.53;4932573;29;20047;-62
2021/12/12 07:48:54;;;;;;;9.90;5.77;;;;;;;10.12;74.91;101229.00;4934083;29;20052;-64
2021/12/12 07:51:24;;;;;;;10.20;5.93;;;;;;;10.00;75.12;101205.97;4933945;29;20075;-68
2021/12/12 07:53:53;;;;;;;9.70;5.67;;;;;;;10.02;75.05;101206.56;4931278;29;20083;-61
2021/12/12 07:56:22;;;;;;;9.10;5.50;;;;;;;10.09;75.27;101225.91;4930583;29;20054;-69
2021/12/12 07:58:50;;;;;;;6.80;4.97;;;;;;;9.97;75.48;101217.66;4932110;29;20183;-65
2021/12/12 08:01:17;;;;;;;8.77;4.43;;;;;;;9.97;75.48;101235.22;4933210;29;20075;-64
2021/12/12 08:03:45;;;;;;;14.17;6.30;;;;;;;9.95;75.83;101228.25;4924986;29;20488;-65
2021/12/12 08:06:14;;;;;;;9.87;4.77;;;;;;;9.89;75.69;101226.50;4933363;29;20047;-65
2021/12/12 08:08:42;;;;;;;4.03;1.98;;;;;;;9.88;76.04;101227.56;4926060;29;20261;-65
2021/12/12 08:11:15;;;;;;;7.17;2.87;;;;;;;9.82;76.57;101226.69;4934713;29;20403;-65
2021/12/12 08:13:42;;;;;;;4.10;2.93;;;;;;;9.92;76.80;101235.19;4932976;29;20055;-65
2021/12/12 08:16:10;;;;;;;5.20;3.00;;;;;;;10.08;76.81;101229.78;4935843;29;20130;-65
2021/12/12 08:18:40;;;;;;;6.37;3.77;;;;;;;10.15;76.95;101236.88;4933637;29;20131;-65
2021/12/12 08:21:09;;;;;;;7.27;3.97;;;;;;;10.32;76.92;101238.72;4933699;29;20043;-65
2021/12/12 08:23:36;;;;;;;5.07;2.73;;;;;;;10.52;76.94;101247.34;4933910;29;20713;-65
2021/12/12 08:26:07;;;;;;;12.97;6.53;;;;;;;10.59;76.71;101247.97;4935079;29;20496;-65
2021/12/12 08:28:35;;;;;;;7.53;5.10;;;;;;;10.83;76.64;101256.00;4931411;29;20047;-65
2021/12/12 08:31:02;;;;;;;11.13;6.03;;;;;;;11.21;76.49;101265.28;4945512;29;20054;-63
2021/12/12 08:33:30;;;;;;;12.70;7.17;;;;;;;11.62;76.35;101260.81;4929118;29;22917;-64
2021/12/12 08:35:58;;;;;;;35.57;20.50;;;;;;;12.17;76.36;101279.06;4929892;29;20139;-64
2021/12/12 08:38:26;;;;;;;22.80;12.80;;;;;;;12.54;76.31;101273.28;4931354;29;20052;-65
2021/12/12 08:40:58;;;;;;;17.10;10.83;;;;;;;12.69;76.16;101241.69;4930930;29;20127;-65
2021/12/12 08:43:28;;;;;;;37.50;22.60;;;;;;;13.23;75.51;101285.16;4929177;29;20134;-64
2021/12/12 08:45:57;;;;;;;;;;;;;;;13.39;76.28;101288.81;4931364;29;20521;-68
2021/12/12 08:48:30;;;;;;;29.50;18.83;;;;;;;13.67;75.36;101281.78;4929937;29;20282;-67
2021/12/12 08:51:02;;;;;;;32.17;20.13;;;;;;;14.01;75.33;101279.16;4936023;29;20071;-66
2021/12/12 08:53:30;;;;;;;32.38;20.52;;;;;;;14.51;75.00;101282.91;4930571;29;20467;-73
2021/12/12 08:55:58;;;;;;;24.80;17.25;;;;;;;15.12;75.27;101284.47;4928626;29;20079;-65
2021/12/12 08:58:29;;;;;;;23.35;16.90;;;;;;;15.90;75.02;101289.13;4932702;29;20056;-66
2021/12/12 09:01:07;;;;;;;11.68;10.02;;;;;;;16.65;74.85;101291.28;4920219;29;20048;-70
2021/12/12 09:03:53;;;;;;;13.55;9.40;;;;;;;17.56;74.12;101292.97;4931890;29;20048;-67
2021/12/12 09:06:26;;;;;;;11.02;7.30;;;;;;;18.42;73.30;101285.63;4930282;29;20106;-68
2021/12/12 09:08:58;;;;;;;20.33;13.95;;;;;;;19.24;71.46;101297.09;4933209;29;20055;-67
2021/12/12 09:11:42;;;;;;;23.10;16.13;;;;;;;19.93;70.35;101291.94;4921193;29;20558;-67
2021/12/12 09:14:36;;;;;;;23.90;20.40;;;;;;;20.65;68.73;101295.50;4931471;29;20055;-58
2021/12/12 09:17:26;;;;;;;17.52;13.02;;;;;;;21.22;67.26;101298.25;4924205;29;20119;-60
2021/12/12 09:20:03;;;;;;;17.35;15.00;;;;;;;21.93;64.10;101295.78;4924994;29;20571;-60
2021/12/12 09:22:42;;;;;;;12.45;10.48;;;;;;;22.61;61.62;101309.25;4930481;29;20462;-60
2021/12/12 09:25:49;;;;;;;10.80;8.60;;;;;;;22.97;59.17;101317.22;4929497;29;20075;-61
2021/12/12 09:28:37;;;;;;;9.55;7.18;;;;;;;22.65;59.43;101305.34;4909107;29;20047;-60
2021/12/12 09:31:12;;;;;;;9.60;8.70;;;;;;;22.83;57.38;101306.06;4932633;29;20123;-60
2021/12/12 09:33:49;;;;;;;15.45;11.05;;;;;;;23.05;56.65;101307.81;4931484;29;20051;-60
2021/12/12 09:36:21;;;;;;;17.60;12.52;;;;;;;23.70;54.64;101304.56;4927917;29;20134;-60
2021/12/12 09:38:56;;;;;;;16.33;11.77;;;;;;;24.35;52.84;101297.88;4930830;29;20142;-60
2021/12/12 09:41:45;;;;;;;11.07;6.82;;;;;;;25.01;52.96;101307.38;4933262;29;20509;-60
2021/12/12 09:44:24;;;;;;;14.32;11.57;;;;;;;25.64;50.64;101301.94;4928734;29;20047;-59
2021/12/12 09:47:45;;;;;;;9.50;7.07;;;;;;;26.02;52.01;101302.56;4930507;29;20142;-60
2021/12/12 09:53:18;;;;;;;6.38;4.28;;;;;;;26.68;49.00;101322.72;4922927;29;20074;-61
2021/12/12 09:56:03;;;;;;;4.90;3.50;;;;;;;25.64;48.41;101295.34;4922781;29;20510;-61
2021/12/12 09:58:40;;;;;;;4.10;3.42;;;;;;;25.05;47.45;101296.88;4919686;29;20052;-61
2021/12/12 10:01:17;;;;;;;5.63;4.47;;;;;;;24.72;47.38;101299.94;4921015;29;20408;-60
2021/12/12 10:04:23;;;;;;;6.97;4.15;;;;;;;24.27;48.38;101296.00;4922469;29;20048;-60
2021/12/12 10:07:11;;;;;;;11.50;5.53;;;;;;;23.52;47.98;101298.16;4925509;29;20058;-60
2021/12/12 10:09:55;;;;;;;7.55;3.97;;;;;;;23.06;47.95;101297.25;4929535;29;20103;-60
2021/12/12 10:12:48;;;;;;;6.63;4.72;;;;;;;23.20;49.13;101294.94;4927235;29;20048;-60
2021/12/12 10:15:22;;;;;;;6.35;4.35;;;;;;;24.15;47.71;101295.16;4936400;29;20134;-60
2021/12/12 10:17:59;;;;;;;5.88;4.38;;;;;;;24.56;47.45;101282.69;4946364;28;20079;-60
2021/12/12 10:21:13;;;;;;;4.40;3.50;;;;;;;24.42;48.10;101297.34;4935266;29;20453;-60
2021/12/12 10:24:04;;;;;;;6.68;4.15;;;;;;;24.90;47.79;101294.78;4922906;29;20122;-60
2021/12/12 10:26:45;;;;;;;6.15;3.97;;;;;;;25.13;46.92;101301.66;4931968;29;20230;-60
2021/12/12 10:29:27;;;;;;;5.22;4.57;;;;;;;24.69;45.58;101301.47;4935143;29;20130;-60
2021/12/12 10:32:20;;;;;;;6.53;4.70;;;;;;;24.15;46.99;101290.25;4934804;29;20130;-60
2021/12/12 10:34:58;;;;;;;7.78;4.78;;;;;;;24.83;45.93;101292.53;4934000;29;20139;-60
2021/12/12 10:37:32;;;;;;;7.43;5.67;;;;;;;25.53;44.81;101280.75;4931289;29;20579;-60
2021/12/12 10:40:05;;;;;;;8.90;5.20;;;;;;;26.16;43.81;101288.66;4934771;29;20369;-60
2021/12/12 10:42:41;;;;;;;7.63;5.43;;;;;;;26.66;42.62;101292.78;4935085;29;20091;-60
2021/12/12 10:45:14;;;;;;;8.02;4.68;;;;;;;27.11;42.27;101289.34;4934458;29;20127;-59
2021/12/12 10:47:59;;;;;;;5.70;4.68;;;;;;;27.50;43.05;101289.34;4934226;29;20552;-59
2021/12/12 10:50:32;;;;;;;8.57;6.28;;;;;;;27.94;41.18;101297.63;4933819;29;20091;-59
2021/12/12 10:53:08;;;;;;;7.18;5.07;;;;;;;27.95;40.56;101287.78;4929922;29;20083;-59
2021/12/12 10:55:47;;;;;;;7.47;5.20;;;;;;;28.01;40.45;101292.00;4934210;29;20083;-60
2021/12/12 10:58:24;;;;;;;;;;;;;;;28.07;43.27;101284.75;4935212;29;20083;-59
2021/12/12 11:01:10;;;;;;;6.25;4.78;;;;;;;27.73;41.32;101280.81;4917157;29;19966;-59
2021/12/12 11:03:44;;;;;;;7.03;5.20;;;;;;;26.96;40.21;101277.91;4931680;29;20472;-59
2021/12/12 11:06:16;;;;;;;7.50;5.65;;;;;;;26.02;39.56;101276.81;4932164;29;20143;-60
2021/12/12 11:08:55;;;;;;;7.57;5.40;;;;;;;25.64;40.79;101266.75;4927297;29;20051;-60
2021/12/12 11:11:26;;;;;;;6.43;5.20;;;;;;;25.72;40.86;101266.59;4930661;29;20058;-60
2021/12/12 11:14:22;;;;;;;9.25;5.65;;;;;;;25.69;41.27;101264.47;4949025;29;20126;-60
2021/12/12 11:16:48;;;;;;;7.75;5.22;;;;;;;26.03;40.62;101269.91;4938642;29;20146;-60
2021/12/12 11:19:26;;;;;;;7.85;4.70;;;;;;;26.40;40.31;101264.72;4938708;29;20500;-60
2021/12/12 11:22:03;;;;;;;8.52;5.07;;;;;;;27.05;40.10;101265.03;4935171;29;20082;-60
2021/12/12 11:24:35;;;;;;;8.50;5.15;;;;;;;27.63;39.07;101265.03;4934874;29;20126;-60
2021/12/12 11:27:11;;;;;;;5.43;4.13;;;;;;;28.22;39.10;101262.03;4937788;29;20135;-60
2021/12/12 11:29:56;;;;;;;6.00;4.43;;;;;;;28.46;39.29;101257.94;4937526;29;20050;-60
2021/12/12 11:32:28;;;;;;;7.07;5.50;;;;;;;28.58;37.97;101263.44;4937770;29;20135;-60
2021/12/12 11:34:57;;;;;;;8.32;6.15;;;;;;;28.52;37.86;101236.28;4938094;29;20079;-60
2021/12/12 11:37:51;;;;;;;12.20;5.63;;;;;;;28.80;38.36;101242.44;4936613;29;20530;-60
2021/12/12 11:40:42;;;;;;;6.20;4.93;;;;;;;29.03;37.21;101250.19;4934601;29;20066;-60
2021/12/12 11:43:41;;;;;;;9.25;5.18;;;;;;;29.16;36.65;101240.09;4926854;29;20130;-59
2021/12/12 11:46:24;;;;;;;10.80;5.15;;;;;;;29.27;37.43;101226.66;4926972;29;20635;-60
2021/12/12 11:49:09;;;;;;;7.93;5.75;;;;;;;29.32;37.20;101231.22;4934947;29;20059;-59
2021/12/12 11:51:44;;;;;;;7.20;5.82;;;;;;;29.33;36.46;101224.22;4936048;29;20087;-59
2021/12/12 11:54:32;;;;;;;9.25;6.03;;;;;;;29.38;36.74;101217.31;4936585;29;20736;-60
2021/12/12 11:57:07;;;;;;;10.77;6.32;;;;;;;29.79;35.72;101212.44;4936023;29;20094;-60
2021/12/12 11:59:43;;;;;;;8.65;6.05;;;;;;;30.41;35.60;101206.81;4937735;29;20504;-60
2021/12/12 12:02:31;;;;;;;8.55;5.43;;;;;;;30.90;34.92;101205.47;4937690;29;20079;-59
2021/12/12 12:05:13;;;;;;;6.95;5.43;;;;;;;30.90;34.11;101202.56;4936356;29;20058;-60
2021/12/12 12:08:17;;;;;;;8.48;5.60;;;;;;;31.03;34.73;101190.69;4931706;29;20087;-60